Time;durP1;ratioP1;P1;durP2;ratioP2;P2;SDS_P1;SDS_P2;PMS_P1;PMS_P2;Temp;Humidity;BMP_temperature;BMP_pressure;BME280_temperature;BME280_humidity;BME280_pressure;Samples;Min_cycle;Max_cycle;Signal;HPM_P1;HPM_P2
2024/01/28 00:02:13;;;;;;;19.52;6.72;;;1.40;99.90;;;;;;5015143;28;20046;-71
2024/01/28 00:04:45;;;;;;;16.15;5.93;;;1.50;99.90;;;;;;5015841;28;20023;-70
2024/01/28 00:07:11;;;;;;;;;;;1.50;99.90;;;;;;5015879;28;20077;-71
2024/01/28 00:09:36;;;;;;;23.08;6.78;;;1.50;99.90;;;;;;4999498;28;19906;-71
2024/01/28 00:12:02;;;;;;;20.58;5.78;;;1.50;99.90;;;;;;5015279;28;20053;-70
2024/01/28 00:14:28;;;;;;;17.35;6.80;;;1.50;99.90;;;;;;5015016;28;20078;-70
2024/01/28 00:16:53;;;;;;;16.38;6.15;;;1.50;99.90;;;;;;5014761;28;20026;-70
2024/01/28 00:19:19;;;;;;;16.40;5.50;;;1.40;99.90;;;;;;5015788;28;20035;-70
2024/01/28 00:21:44;;;;;;;20.55;6.30;;;1.50;99.90;;;;;;5014733;28;20065;-70
2024/01/28 00:24:10;;;;;;;13.75;6.53;;;1.40;99.90;;;;;;5015036;28;20030;-70
2024/01/28 00:26:37;;;;;;;12.52;5.10;;;1.30;99.90;;;;;;5015557;28;20029;-70
2024/01/28 00:29:02;;;;;;;14.07;4.45;;;1.30;99.90;;;;;;5015452;28;20096;-70
2024/01/28 00:31:28;;;;;;;9.88;4.95;;;1.20;99.90;;;;;;5014744;28;20049;-71
2024/01/28 00:33:53;;;;;;;13.57;4.65;;;1.10;99.90;;;;;;5014756;28;20027;-71
2024/01/28 00:36:19;;;;;;;17.20;4.80;;;1.10;99.90;;;;;;5014621;28;20018;-71
2024/01/28 00:38:44;;;;;;;19.25;5.15;;;1.10;99.90;;;;;;5014456;28;20050;-71
2024/01/28 00:41:22;;;;;;;14.88;5.82;;;1.00;99.90;;;;;;5014210;28;20026;-71
2024/01/28 00:43:52;;;;;;;11.48;5.03;;;1.00;99.90;;;;;;4998460;28;20030;-71
2024/01/28 00:46:18;;;;;;;12.63;4.82;;;1.10;99.90;;;;;;4998319;28;20047;-71
2024/01/28 00:48:43;;;;;;;15.85;5.55;;;1.10;99.90;;;;;;5015314;28;20026;-70
2024/01/28 00:51:09;;;;;;;14.88;4.55;;;1.10;99.90;;;;;;5014939;28;20038;-70
2024/01/28 00:53:34;;;;;;;11.48;4.18;;;1.00;99.90;;;;;;5014317;28;20026;-70
2024/01/28 00:56:00;;;;;;;15.90;4.93;;;0.90;99.90;;;;;;5014286;28;20050;-70
2024/01/28 00:58:29;;;;;;;14.95;5.30;;;0.90;99.90;;;;;;5013869;28;20021;-70
2024/01/28 01:00:54;;;;;;;19.15;4.95;;;0.90;99.90;;;;;;5014335;28;20026;-70
2024/01/28 01:03:20;;;;;;;12.35;5.05;;;1.00;99.90;;;;;;5015052;28;20080;-70
2024/01/28 01:05:46;;;;;;;12.25;4.93;;;0.90;99.90;;;;;;5014402;28;20026;-70
2024/01/28 01:08:12;;;;;;;17.17;5.30;;;0.90;99.90;;;;;;5014855;28;20049;-70
2024/01/28 01:10:38;;;;;;;14.13;4.88;;;0.90;99.90;;;;;;5014381;28;20026;-70
2024/01/28 01:13:04;;;;;;;21.42;5.97;;;0.90;99.90;;;;;;5013896;28;20026;-70
2024/01/28 01:15:32;;;;;;;11.32;4.85;;;0.80;99.90;;;;;;5014198;28;20022;-70
2024/01/28 01:17:58;;;;;;;14.65;5.15;;;0.80;99.90;;;;;;5013836;28;20108;-70
2024/01/28 01:20:23;;;;;;;12.25;5.35;;;0.50;99.90;;;;;;5014524;28;20023;-70
2024/01/28 01:22:49;;;;;;;9.32;5.03;;;0.60;99.90;;;;;;5014814;28;20034;-70
2024/01/28 01:25:14;;;;;;;14.32;4.97;;;0.70;99.90;;;;;;5013640;28;20030;-70
2024/01/28 01:27:41;;;;;;;12.57;4.63;;;0.70;99.90;;;;;;5013698;28;20113;-70
2024/01/28 01:30:07;;;;;;;13.32;4.13;;;0.60;99.90;;;;;;5013836;28;20056;-70
2024/01/28 01:32:35;;;;;;;14.50;5.07;;;0.60;99.90;;;;;;5014190;28;20022;-70
2024/01/28 01:35:01;;;;;;;11.15;4.00;;;0.70;99.90;;;;;;5014214;28;20022;-70
2024/01/28 01:37:27;;;;;;;14.55;4.18;;;0.60;99.90;;;;;;5013481;28;20073;-70
2024/01/28 01:39:52;;;;;;;17.73;4.75;;;0.80;99.90;;;;;;5014094;28;20061;-70
2024/01/28 01:42:18;;;;;;;12.75;4.40;;;0.70;99.90;;;;;;5013675;28;20072;-71
2024/01/28 01:44:43;;;;;;;12.65;4.97;;;0.70;99.90;;;;;;5013337;28;20108;-71
2024/01/28 01:47:09;;;;;;;8.55;4.57;;;0.70;99.90;;;;;;5013452;28;20025;-71
2024/01/28 01:49:35;;;;;;;13.27;4.85;;;0.70;99.90;;;;;;5013580;28;20026;-71
2024/01/28 01:52:01;;;;;;;13.10;5.55;;;0.70;99.90;;;;;;5013972;28;20022;-71
2024/01/28 01:54:27;;;;;;;13.73;4.50;;;0.60;99.90;;;;;;5013442;28;20031;-71
2024/01/28 01:56:52;;;;;;;12.70;4.63;;;0.70;99.90;;;;;;5013995;28;20036;-70
2024/01/28 01:59:20;;;;;;;13.23;4.32;;;0.70;99.90;;;;;;5013965;28;20042;-70
2024/01/28 02:01:46;;;;;;;14.25;4.30;;;0.50;99.90;;;;;;5013852;28;20053;-70
2024/01/28 02:04:12;;;;;;;9.50;3.58;;;0.40;99.90;;;;;;5013549;28;20027;-70
2024/01/28 02:06:38;;;;;;;6.65;3.60;;;0.20;99.90;;;;;;5013307;28;20027;-70
2024/01/28 02:09:06;;;;;;;13.40;4.43;;;0.20;99.90;;;;;;5012582;28;20083;-70
2024/01/28 02:11:32;;;;;;;9.40;3.83;;;0.20;99.90;;;;;;5013345;28;20045;-70
2024/01/28 02:13:57;;;;;;;13.63;4.45;;;0.20;99.90;;;;;;5013727;28;20120;-70
2024/01/28 02:16:26;;;;;;;10.48;3.92;;;0.20;99.90;;;;;;5013279;28;20023;-70
2024/01/28 02:18:52;;;;;;;14.13;3.92;;;0.30;99.90;;;;;;5012739;28;20047;-70
2024/01/28 02:21:17;;;;;;;11.95;4.28;;;0.40;99.90;;;;;;5013180;28;20146;-70
2024/01/28 02:23:43;;;;;;;12.40;4.47;;;0.40;99.90;;;;;;5013006;28;20033;-70
2024/01/28 02:26:09;;;;;;;14.82;4.97;;;0.30;99.90;;;;;;5013180;28;20037;-70
2024/01/28 02:28:35;;;;;;;11.77;4.60;;;0.40;99.90;;;;;;5013388;28;20041;-70
2024/01/28 02:31:01;;;;;;;14.88;4.65;;;0.40;99.90;;;;;;5013033;28;20027;-70
2024/01/28 02:33:26;;;;;;;23.92;4.53;;;0.40;99.90;;;;;;5012788;28;20081;-70
2024/01/28 02:35:52;;;;;;;15.70;4.47;;;0.50;99.90;;;;;;5013289;28;20022;-70
2024/01/28 02:38:17;;;;;;;13.65;5.00;;;0.50;99.90;;;;;;5013153;28;20019;-70
2024/01/28 02:40:43;;;;;;;17.52;4.03;;;0.30;99.90;;;;;;5013322;28;20027;-70
2024/01/28 02:43:10;;;;;;;6.18;3.80;;;0.30;99.90;;;;;;5012871;28;20030;-70
2024/01/28 02:45:35;;;;;;;18.67;5.30;;;0.20;99.90;;;;;;5013179;28;20088;-70
2024/01/28 02:48:01;;;;;;;10.88;4.40;;;0.30;99.90;;;;;;5013023;28;20026;-70
2024/01/28 02:50:26;;;;;;;9.57;4.28;;;0.30;99.90;;;;;;5012756;28;20034;-70
2024/01/28 02:52:52;;;;;;;8.45;3.42;;;0.40;99.90;;;;;;5012828;28;20088;-70
2024/01/28 02:55:17;;;;;;;9.75;5.00;;;0.20;99.90;;;;;;5013416;28;20022;-70
2024/01/28 02:57:43;;;;;;;10.75;4.20;;;0.20;99.90;;;;;;5012742;28;20042;-70
2024/01/28 03:00:09;;;;;;;8.52;3.50;;;0.20;99.90;;;;;;5012904;28;20022;-70
2024/01/28 03:02:37;;;;;;;27.77;10.65;;;0.20;99.90;;;;;;4997027;28;20053;-70
2024/01/28 03:05:02;;;;;;;16.45;5.75;;;0.20;99.90;;;;;;4996243;28;20018;-70
2024/01/28 03:07:28;;;;;;;17.05;5.40;;;0.20;99.90;;;;;;5012628;28;20117;-70
2024/01/28 03:09:53;;;;;;;17.35;5.63;;;0.10;99.90;;;;;;5012549;28;20037;-70
2024/01/28 03:12:19;;;;;;;10.05;4.35;;;0.20;99.90;;;;;;5012730;28;20026;-70
2024/01/28 03:14:45;;;;;;;13.38;4.50;;;0.10;99.90;;;;;;5012635;28;20029;-70
2024/01/28 03:17:10;;;;;;;10.50;4.22;;;0.10;99.90;;;;;;5012182;28;20041;-70
2024/01/28 03:19:36;;;;;;;10.90;4.15;;;0.10;99.90;;;;;;5013198;28;20026;-70
2024/01/28 03:22:03;;;;;;;10.55;3.83;;;-0.20;99.90;;;;;;5014543;28;20022;-70
2024/01/28 03:24:28;;;;;;;12.23;4.68;;;-0.10;99.90;;;;;;5016193;28;20026;-70
2024/01/28 03:26:54;;;;;;;13.13;4.03;;;0.00;99.90;;;;;;5015721;28;20088;-70
2024/01/28 03:29:20;;;;;;;16.60;4.82;;;0.00;99.90;;;;;;5016622;28;20033;-70
2024/01/28 03:31:46;;;;;;;9.95;4.22;;;0.00;99.90;;;;;;5016476;28;20049;-70
2024/01/28 03:34:12;;;;;;;10.45;4.00;;;0.00;99.90;;;;;;5015884;28;20026;-70
2024/01/28 03:36:37;;;;;;;13.00;4.38;;;0.00;99.90;;;;;;5015769;28;20025;-70
2024/01/28 03:39:04;;;;;;;8.35;3.88;;;0.00;99.90;;;;;;5015890;28;20080;-70
2024/01/28 03:41:30;;;;;;;11.05;4.20;;;0.00;99.90;;;;;;5015456;28;20027;-70
2024/01/28 03:43:56;;;;;;;12.35;3.95;;;0.00;99.90;;;;;;5015344;28;20161;-70
2024/01/28 03:46:22;;;;;;;12.85;4.00;;;-0.10;99.90;;;;;;5016354;28;20022;-70
2024/01/28 03:48:48;;;;;;;12.80;4.75;;;-0.10;99.90;;;;;;5015340;28;20033;-70
2024/01/28 03:51:13;;;;;;;13.52;5.47;;;-0.20;99.90;;;;;;5015740;28;20029;-70
2024/01/28 03:53:39;;;;;;;10.52;3.95;;;-0.20;99.90;;;;;;5016273;28;20030;-70
2024/01/28 03:56:06;;;;;;;9.18;3.58;;;-0.20;99.90;;;;;;5015559;28;20121;-70
2024/01/28 03:58:32;;;;;;;9.75;4.35;;;-0.10;99.90;;;;;;5016039;28;20022;-70
2024/01/28 04:00:57;;;;;;;9.20;3.92;;;-0.10;99.90;;;;;;5015375;28;20019;-70
2024/01/28 04:03:23;;;;;;;9.00;4.03;;;-0.10;99.90;;;;;;5015346;28;20026;-70
2024/01/28 04:05:48;;;;;;;11.68;4.13;;;-0.10;99.90;;;;;;5015532;28;20027;-70
2024/01/28 04:08:14;;;;;;;11.48;4.05;;;-0.10;99.90;;;;;;5015315;28;20034;-70
2024/01/28 04:10:39;;;;;;;11.88;4.18;;;0.00;99.90;;;;;;5015231;28;20022;-70
2024/01/28 04:13:05;;;;;;;8.38;4.65;;;0.00;99.90;;;;;;5015457;28;20038;-70
2024/01/28 04:15:30;;;;;;;12.15;4.40;;;0.00;99.90;;;;;;5015250;28;20026;-70
2024/01/28 04:17:56;;;;;;;16.90;5.05;;;0.00;99.90;;;;;;5014943;28;20164;-70
2024/01/28 04:20:22;;;;;;;12.77;4.32;;;0.00;99.90;;;;;;5014839;28;20022;-70
2024/01/28 04:22:47;;;;;;;13.95;4.25;;;0.00;99.90;;;;;;5015002;28;20022;-70
2024/01/28 04:25:13;;;;;;;12.48;4.43;;;-0.20;99.90;;;;;;5014882;28;20032;-70
2024/01/28 04:27:39;;;;;;;8.20;3.60;;;-0.40;99.90;;;;;;5014818;28;20026;-70
2024/01/28 04:30:06;;;;;;;16.02;4.35;;;-0.30;99.90;;;;;;5014984;28;20041;-70
2024/01/28 04:32:32;;;;;;;13.20;3.90;;;-0.40;99.90;;;;;;5014575;28;20027;-70
2024/01/28 04:34:57;;;;;;;9.63;3.53;;;-0.30;99.90;;;;;;5014409;28;20042;-70
2024/01/28 04:37:26;;;;;;;9.50;4.43;;;-0.50;99.90;;;;;;5014643;28;20023;-70
2024/01/28 04:39:51;;;;;;;14.32;4.07;;;-0.30;99.90;;;;;;5014617;28;20019;-70
2024/01/28 04:42:22;;;;;;;8.93;3.75;;;-0.50;99.90;;;;;;5015266;28;20028;-70
2024/01/28 04:44:50;;;;;;;8.00;3.75;;;-0.40;99.90;;;;;;5015260;28;20019;-70
2024/01/28 04:47:16;;;;;;;15.63;4.57;;;-0.70;99.90;;;;;;5014521;28;20089;-70
2024/01/28 04:49:42;;;;;;;7.45;3.80;;;-0.70;99.90;;;;;;5014550;28;20058;-70
2024/01/28 04:52:08;;;;;;;10.05;3.30;;;-0.60;99.90;;;;;;5014864;28;20029;-70
2024/01/28 04:54:33;;;;;;;9.23;4.15;;;-0.70;99.90;;;;;;4998054;28;20030;-70
2024/01/28 04:57:01;;;;;;;10.15;4.10;;;-0.50;99.90;;;;;;5014659;28;20029;-70
2024/01/28 04:59:28;;;;;;;11.60;3.03;;;-0.20;99.90;;;;;;5014364;28;20030;-68
2024/01/28 05:01:54;;;;;;;14.88;3.80;;;-0.50;99.90;;;;;;5014669;28;20077;-68
2024/01/28 05:04:19;;;;;;;9.48;3.55;;;-0.40;99.90;;;;;;5014042;28;20027;-68
2024/01/28 05:06:45;;;;;;;9.60;3.50;;;-0.60;99.90;;;;;;5014063;28;20121;-68
2024/01/28 05:09:11;;;;;;;14.95;4.03;;;-0.70;99.90;;;;;;5014229;28;20026;-68
2024/01/28 05:11:36;;;;;;;15.05;3.67;;;-0.50;99.90;;;;;;5014888;28;20037;-68
2024/01/28 05:14:02;;;;;;;7.57;3.72;;;-0.60;99.90;;;;;;5014823;28;20033;-68
2024/01/28 05:16:28;;;;;;;11.13;4.22;;;-0.40;99.90;;;;;;5014095;28;20072;-68
2024/01/28 05:18:53;;;;;;;13.45;3.92;;;-0.60;99.90;;;;;;5013740;28;20034;-68
2024/01/28 05:21:19;;;;;;;7.40;3.72;;;-0.50;99.90;;;;;;5014566;28;20057;-68
2024/01/28 05:23:46;;;;;;;20.27;4.00;;;-0.60;99.90;;;;;;5013838;28;20143;-68
2024/01/28 05:26:12;;;;;;;11.55;3.65;;;-0.50;99.90;;;;;;5014006;28;20033;-68
2024/01/28 05:28:38;;;;;;;8.65;3.42;;;-0.50;99.90;;;;;;5013901;28;20053;-68
2024/01/28 05:31:04;;;;;;;14.52;3.95;;;-0.70;99.90;;;;;;5013799;28;20026;-68
2024/01/28 05:33:30;;;;;;;11.18;4.32;;;-0.50;99.90;;;;;;5013714;28;20033;-68
2024/01/28 05:35:57;;;;;;;11.52;4.55;;;-0.50;99.90;;;;;;5013882;28;20057;-68
2024/01/28 05:38:23;;;;;;;12.05;3.83;;;-0.60;99.90;;;;;;5013778;28;20042;-67
2024/01/28 05:40:49;;;;;;;13.60;3.90;;;-0.90;99.90;;;;;;5014444;28;20026;-67
2024/01/28 05:43:14;;;;;;;10.45;3.35;;;-0.80;99.90;;;;;;5013145;28;20030;-67
2024/01/28 05:45:40;;;;;;;10.23;4.03;;;-1.10;99.90;;;;;;5013289;28;20088;-67
2024/01/28 05:48:06;;;;;;;7.65;3.58;;;-0.90;99.90;;;;;;5013708;28;20054;-67
2024/01/28 05:50:32;;;;;;;11.10;3.88;;;-0.70;99.90;;;;;;4996773;28;20109;-67
2024/01/28 05:52:57;;;;;;;12.88;4.13;;;-0.50;99.90;;;;;;5013538;28;20057;-67
2024/01/28 05:55:23;;;;;;;13.70;3.38;;;-0.50;99.90;;;;;;5013573;28;20023;-68
2024/01/28 05:57:48;;;;;;;7.00;4.10;;;-0.30;99.90;;;;;;5013336;28;20022;-68
2024/01/28 06:00:16;;;;;;;11.80;3.92;;;-0.70;99.90;;;;;;5013651;28;20022;-68
2024/01/28 06:02:42;;;;;;;9.88;3.13;;;-0.80;99.90;;;;;;4996726;28;20029;-68
2024/01/28 06:05:09;;;;;;;8.77;3.28;;;-0.70;99.90;;;;;;5013903;28;20022;-68
2024/01/28 06:07:34;;;;;;;15.00;3.50;;;-0.80;99.90;;;;;;5013924;28;20117;-68
2024/01/28 06:10:00;;;;;;;12.73;4.53;;;-0.60;99.90;;;;;;5013096;28;20053;-68
2024/01/28 06:12:26;;;;;;;16.65;3.50;;;-0.70;99.90;;;;;;5012921;28;20027;-68
2024/01/28 06:14:51;;;;;;;10.82;3.25;;;-0.80;99.90;;;;;;5013420;28;20022;-67
2024/01/28 06:17:17;;;;;;;7.13;3.00;;;-0.80;99.90;;;;;;5013335;28;20041;-67
2024/01/28 06:19:44;;;;;;;8.85;3.67;;;-0.70;99.90;;;;;;5013170;28;20090;-67
2024/01/28 06:22:10;;;;;;;9.82;3.45;;;-0.60;99.90;;;;;;5013685;28;20023;-67
2024/01/28 06:24:35;;;;;;;13.18;3.40;;;-0.50;99.90;;;;;;5013709;28;20053;-67
2024/01/28 06:27:01;;;;;;;7.82;3.30;;;-0.60;99.90;;;;;;5013253;28;20034;-67
2024/01/28 06:29:26;;;;;;;10.13;2.85;;;-0.90;99.90;;;;;;5013033;28;20029;-67
2024/01/28 06:31:52;;;;;;;10.70;3.78;;;-1.00;99.90;;;;;;5013520;28;20033;-67
2024/01/28 06:34:18;;;;;;;11.38;3.92;;;-1.00;99.90;;;;;;5013023;28;20054;-67
2024/01/28 06:36:44;;;;;;;12.85;4.88;;;-0.90;99.90;;;;;;5012909;28;20057;-67
2024/01/28 06:39:09;;;;;;;9.20;3.97;;;-0.80;99.90;;;;;;5013167;28;20046;-67
2024/01/28 06:41:37;;;;;;;18.20;5.05;;;-0.80;99.90;;;;;;5013137;28;20169;-67
2024/01/28 06:44:03;;;;;;;22.00;7.13;;;-0.70;99.90;;;;;;5013791;28;20037;-67
2024/01/28 06:46:28;;;;;;;14.93;6.47;;;-0.70;99.90;;;;;;5013149;28;20022;-67
2024/01/28 06:48:54;;;;;;;33.97;10.65;;;-0.60;99.90;;;;;;5012541;28;20026;-67
2024/01/28 06:51:19;;;;;;;25.80;9.43;;;-0.50;99.90;;;;;;4997112;28;20030;-67
2024/01/28 06:53:46;;;;;;;26.67;7.18;;;-0.50;99.90;;;;;;5013105;28;20022;-67
2024/01/28 06:56:11;;;;;;;27.35;8.48;;;-0.40;99.90;;;;;;5015525;28;20023;-67
2024/01/28 06:58:37;;;;;;;26.75;9.07;;;-0.40;99.90;;;;;;5016277;28;20018;-67
2024/01/28 07:01:03;;;;;;;17.27;4.65;;;-0.40;99.90;;;;;;5016323;28;20022;-67
2024/01/28 07:03:29;;;;;;;10.18;4.07;;;-0.70;99.90;;;;;;5016456;28;20061;-67
2024/01/28 07:05:54;;;;;;;11.57;3.70;;;-0.90;99.90;;;;;;5016749;28;20022;-67
2024/01/28 07:08:20;;;;;;;11.13;2.92;;;-0.90;99.90;;;;;;5016416;28;20030;-67
2024/01/28 07:10:46;;;;;;;15.45;3.55;;;-1.00;99.90;;;;;;5016394;28;20030;-67
2024/01/28 07:13:11;;;;;;;4.55;2.85;;;-1.00;99.90;;;;;;5016178;28;20022;-67
2024/01/28 07:15:37;;;;;;;12.30;3.75;;;-1.10;99.90;;;;;;5016354;28;20234;-67
2024/01/28 07:18:03;;;;;;;9.73;3.45;;;-0.90;99.90;;;;;;5016541;28;20058;-67
2024/01/28 07:20:28;;;;;;;8.65;4.10;;;-1.00;99.90;;;;;;5016151;28;20053;-67
2024/01/28 07:22:54;;;;;;;12.82;4.05;;;-0.80;99.90;;;;;;5016695;28;20030;-67
2024/01/28 07:25:19;;;;;;;8.68;3.13;;;-0.90;99.90;;;;;;5016164;28;20027;-67
2024/01/28 07:27:46;;;;;;;8.95;3.05;;;-0.80;99.90;;;;;;5016119;28;20061;-67
2024/01/28 07:30:12;;;;;;;13.38;3.35;;;-0.90;99.90;;;;;;5016047;28;20062;-67
2024/01/28 07:32:37;;;;;;;9.25;3.75;;;-0.90;99.90;;;;;;4999590;28;20088;-68
2024/01/28 07:35:04;;;;;;;10.90;5.63;;;-1.00;99.90;;;;;;5015972;28;20015;-68
2024/01/28 07:37:29;;;;;;;10.32;3.78;;;-0.90;99.90;;;;;;5015998;28;20030;-68
2024/01/28 07:39:55;;;;;;;13.68;3.80;;;-0.80;99.90;;;;;;5015548;28;20061;-68
2024/01/28 07:42:21;;;;;;;8.85;3.10;;;-0.80;99.90;;;;;;5015725;28;20026;-68
2024/01/28 07:44:46;;;;;;;8.02;2.83;;;-0.80;99.90;;;;;;5015679;28;20030;-68
2024/01/28 07:47:12;;;;;;;17.27;3.53;;;-0.70;99.90;;;;;;5015640;28;20030;-63
2024/01/28 07:49:37;;;;;;;15.05;3.42;;;-0.70;99.90;;;;;;5015484;28;20027;-63
2024/01/28 07:52:03;;;;;;;8.23;3.13;;;-0.70;99.90;;;;;;5015728;28;20019;-63
2024/01/28 07:54:28;;;;;;;11.95;4.07;;;-0.50;99.90;;;;;;5015576;28;20128;-63
2024/01/28 07:56:55;;;;;;;7.40;2.65;;;-0.60;99.90;;;;;;5016220;28;20056;-63
2024/01/28 07:59:21;;;;;;;9.63;3.30;;;-0.70;99.90;;;;;;5015968;28;20019;-63
2024/01/28 08:01:47;;;;;;;9.68;3.47;;;-0.80;99.90;;;;;;5015460;28;20026;-63
2024/01/28 08:04:12;;;;;;;7.75;3.22;;;-0.70;99.90;;;;;;5015651;28;20026;-63
2024/01/28 08:06:38;;;;;;;8.00;3.33;;;-0.60;99.90;;;;;;5014194;28;20077;-63
2024/01/28 08:09:04;;;;;;;14.80;3.85;;;-0.60;99.90;;;;;;5015310;28;20026;-63
2024/01/28 08:11:30;;;;;;;9.13;3.90;;;-0.50;99.90;;;;;;5015187;28;20108;-63
2024/01/28 08:13:55;;;;;;;7.35;3.63;;;-0.30;99.90;;;;;;5015456;28;20046;-63
2024/01/28 08:16:21;;;;;;;15.80;3.85;;;-0.40;99.90;;;;;;5014986;28;20023;-63
2024/01/28 08:18:47;;;;;;;6.88;3.15;;;-0.60;99.90;;;;;;5015168;28;20034;-63
2024/01/28 08:21:13;;;;;;;8.82;3.75;;;-0.30;99.90;;;;;;5014864;28;20109;-63
2024/01/28 08:23:38;;;;;;;14.40;3.90;;;-0.40;99.90;;;;;;5015733;28;20049;-63
2024/01/28 08:26:05;;;;;;;13.57;4.32;;;-0.10;99.90;;;;;;5015716;28;20093;-63
2024/01/28 08:28:31;;;;;;;12.20;4.03;;;0.00;99.90;;;;;;5015075;28;20034;-63
2024/01/28 08:30:56;;;;;;;10.25;2.90;;;0.00;99.90;;;;;;5014970;28;20121;-63
2024/01/28 08:33:22;;;;;;;14.65;3.17;;;-0.10;99.90;;;;;;5015513;28;20037;-63
2024/01/28 08:35:48;;;;;;;8.18;4.25;;;0.20;99.90;;;;;;5014873;28;20022;-63
2024/01/28 08:38:13;;;;;;;22.17;4.22;;;0.00;99.90;;;;;;5014752;28;20015;-63
2024/01/28 08:40:39;;;;;;;9.82;3.95;;;0.20;99.90;;;;;;5015447;28;20029;-63
2024/01/28 08:43:07;;;;;;;9.60;3.95;;;0.30;99.90;;;;;;5014658;28;20073;-63
2024/01/28 08:45:32;;;;;;;10.27;3.88;;;0.30;99.90;;;;;;5014666;28;20031;-63
2024/01/28 08:47:59;;;;;;;11.07;4.68;;;0.50;99.90;;;;;;5014399;28;20027;-63
2024/01/28 08:50:25;;;;;;;9.07;4.28;;;0.70;99.90;;;;;;5014659;28;20113;-63
2024/01/28 08:52:51;;;;;;;11.00;4.03;;;0.70;99.90;;;;;;5014577;28;20061;-63
2024/01/28 08:55:17;;;;;;;14.40;4.00;;;0.70;99.90;;;;;;5014262;28;20042;-63
2024/01/28 08:57:43;;;;;;;8.70;3.50;;;0.90;99.90;;;;;;5014840;28;20023;-63
2024/01/28 09:00:11;;;;;;;15.07;4.57;;;1.00;99.90;;;;;;5014703;28;20050;-63
2024/01/28 09:02:40;;;;;;;14.50;4.85;;;1.30;99.90;;;;;;4997646;28;20034;-63
2024/01/28 09:05:07;;;;;;;16.92;4.90;;;1.20;99.90;;;;;;4998453;28;20031;-63
2024/01/28 09:07:34;;;;;;;8.32;4.30;;;1.50;99.90;;;;;;5013887;28;20026;-63
2024/01/28 09:10:00;;;;;;;12.05;4.43;;;1.60;99.90;;;;;;5014133;28;20026;-63
2024/01/28 09:12:25;;;;;;;10.73;4.60;;;1.80;99.90;;;;;;5013800;28;20027;-63
2024/01/28 09:14:52;;;;;;;13.18;4.00;;;1.90;99.90;;;;;;5013908;28;20026;-63
2024/01/28 09:17:17;;;;;;;13.00;4.07;;;1.90;99.90;;;;;;5013621;28;20029;-63
2024/01/28 09:19:43;;;;;;;10.32;4.22;;;2.00;99.90;;;;;;5014062;28;20034;-63
2024/01/28 09:22:08;;;;;;;16.27;5.00;;;2.00;99.90;;;;;;5013615;28;20026;-63
2024/01/28 09:24:34;;;;;;;11.60;4.55;;;2.10;99.90;;;;;;5013916;28;20058;-63
2024/01/28 09:27:01;;;;;;;13.05;4.50;;;2.20;99.90;;;;;;5014690;28;20029;-63
2024/01/28 09:29:27;;;;;;;14.23;4.53;;;2.30;99.90;;;;;;5013534;28;20030;-64
2024/01/28 09:31:55;;;;;;;9.85;4.30;;;2.30;99.90;;;;;;5014383;28;20072;-63
2024/01/28 09:34:23;;;;;;;10.95;4.30;;;2.40;99.90;;;;;;5013414;28;20026;-64
2024/01/28 09:36:49;;;;;;;12.32;4.43;;;2.40;99.90;;;;;;5013936;28;20022;-64
2024/01/28 09:39:15;;;;;;;16.33;4.50;;;2.50;99.90;;;;;;5013760;28;20032;-64
2024/01/28 09:41:59;;;;;;;14.50;3.70;;;2.60;99.90;;;;;;5013715;28;20021;-64
2024/01/28 09:44:24;;;;;;;8.43;3.83;;;2.80;99.90;;;;;;5013959;28;20117;-64
2024/01/28 09:46:50;;;;;;;13.40;4.25;;;2.90;99.90;;;;;;5013527;28;20058;-64
2024/01/28 09:49:17;;;;;;;15.93;4.25;;;3.00;99.90;;;;;;4997004;28;20030;-65
2024/01/28 09:51:43;;;;;;;10.80;4.10;;;3.10;99.90;;;;;;5013744;28;20034;-64
2024/01/28 09:54:10;;;;;;;14.07;3.72;;;3.20;99.90;;;;;;5013969;28;20029;-66
2024/01/28 09:56:36;;;;;;;11.38;4.18;;;3.30;99.90;;;;;;5013565;28;20026;-64
2024/01/28 09:59:04;;;;;;;12.38;4.68;;;3.30;99.90;;;;;;5013485;28;20027;-63
2024/01/28 10:01:31;;;;;;;10.57;4.30;;;3.40;99.90;;;;;;5013274;28;20033;-63
2024/01/28 10:03:59;;;;;;;10.35;4.10;;;3.50;99.90;;;;;;5013705;28;20030;-63
2024/01/28 10:06:25;;;;;;;12.00;4.15;;;3.60;99.90;;;;;;5013433;28;20026;-64
2024/01/28 10:08:50;;;;;;;14.05;3.88;;;3.70;99.90;;;;;;5013327;28;20089;-64
2024/01/28 10:11:16;;;;;;;11.25;3.80;;;3.90;99.90;;;;;;5013848;28;20037;-64
2024/01/28 10:13:42;;;;;;;11.90;3.92;;;4.00;99.90;;;;;;5013535;28;20030;-63
2024/01/28 10:16:07;;;;;;;9.45;4.28;;;4.10;99.90;;;;;;5013328;28;20026;-64
2024/01/28 10:18:33;;;;;;;6.68;3.50;;;4.30;99.90;;;;;;5013431;28;20026;-64
2024/01/28 10:20:58;;;;;;;16.13;4.72;;;4.40;99.90;;;;;;5013658;28;20080;-63
2024/01/28 10:23:24;;;;;;;14.43;4.15;;;4.50;99.90;;;;;;5013300;28;20027;-63
2024/01/28 10:25:50;;;;;;;12.80;4.63;;;4.60;99.90;;;;;;5013284;28;20037;-64
2024/01/28 10:28:18;;;;;;;9.80;3.80;;;4.70;99.90;;;;;;5013252;28;20034;-64
2024/01/28 10:30:48;;;;;;;12.10;5.40;;;4.90;99.90;;;;;;5015006;28;20038;-65
2024/01/28 10:33:14;;;;;;;8.10;4.30;;;5.10;99.90;;;;;;5000240;28;20045;-64
2024/01/28 10:35:40;;;;;;;14.00;4.55;;;5.20;99.90;;;;;;5017174;28;20083;-63
2024/01/28 10:38:11;;;;;;;9.25;3.38;;;5.40;99.90;;;;;;5016931;28;20030;-64
2024/01/28 10:40:43;;;;;;;12.73;3.50;;;5.50;99.90;;;;;;5000651;28;20026;-64
2024/01/28 10:43:15;;;;;;;12.30;3.35;;;5.50;99.90;;;;;;5000451;28;20030;-63
2024/01/28 10:45:42;;;;;;;12.55;4.55;;;5.70;99.90;;;;;;5017392;28;20022;-64
2024/01/28 10:48:16;;;;;;;15.10;4.07;;;5.90;99.90;;;;;;5016999;28;20034;-64
2024/01/28 10:50:41;;;;;;;9.55;3.50;;;6.00;99.90;;;;;;5000503;28;20084;-64
2024/01/28 10:53:09;;;;;;;11.55;3.50;;;6.10;99.90;;;;;;5016665;28;20026;-64
2024/01/28 10:55:35;;;;;;;14.55;4.15;;;6.20;99.90;;;;;;5016766;28;20023;-64
2024/01/28 10:58:03;;;;;;;6.35;3.53;;;6.30;99.90;;;;;;5016651;28;20022;-65
2024/01/28 11:00:29;;;;;;;9.20;4.40;;;6.40;99.90;;;;;;5016313;28;20046;-64
2024/01/28 11:02:58;;;;;;;14.65;4.40;;;6.50;99.90;;;;;;5016686;28;20037;-64
2024/01/28 11:05:25;;;;;;;11.40;3.90;;;6.50;99.90;;;;;;5016976;28;20026;-64
2024/01/28 11:07:53;;;;;;;10.60;3.95;;;6.60;99.90;;;;;;5000300;28;20054;-65
2024/01/28 11:10:21;;;;;;;11.38;4.15;;;6.80;99.90;;;;;;5016480;28;20041;-65
2024/01/28 11:12:49;;;;;;;6.95;3.38;;;6.90;99.90;;;;;;5016464;28;20037;-65
2024/01/28 11:15:15;;;;;;;9.57;3.42;;;7.00;99.90;;;;;;5016289;28;20026;-65
2024/01/28 11:17:40;;;;;;;11.93;4.45;;;7.00;99.90;;;;;;5015854;28;20030;-64
2024/01/28 11:20:07;;;;;;;8.45;3.47;;;7.10;99.90;;;;;;5016222;28;20060;-64
2024/01/28 11:22:53;;;;;;;12.10;3.78;;;7.30;99.90;;;;;;5000057;28;20023;-64
2024/01/28 11:25:20;;;;;;;10.35;4.03;;;7.60;99.90;;;;;;5015895;28;20026;-64
2024/01/28 11:28:01;;;;;;;8.25;3.72;;;7.70;99.90;;;;;;5016644;28;20041;-65
2024/01/28 11:30:26;;;;;;;10.70;3.42;;;7.40;99.90;;;;;;5016649;28;20034;-64
2024/01/28 11:32:57;;;;;;;11.07;4.05;;;7.50;99.90;;;;;;5015988;28;20060;-64
2024/01/28 11:35:23;;;;;;;18.02;4.80;;;7.40;99.90;;;;;;5015853;28;20022;-64
2024/01/28 11:37:57;;;;;;;11.32;3.75;;;7.50;99.90;;;;;;5015629;28;20027;-64
2024/01/28 11:40:47;;;;;;;11.43;3.47;;;7.60;99.90;;;;;;5016535;28;20049;-65
2024/01/28 11:43:13;;;;;;;10.38;3.90;;;8.00;99.90;;;;;;4998965;28;20038;-64
2024/01/28 11:45:39;;;;;;;12.77;4.25;;;8.10;99.90;;;;;;5015753;28;20050;-64
2024/01/28 11:48:09;;;;;;;14.55;3.45;;;8.30;99.90;;;;;;5015860;28;20026;-64
2024/01/28 11:50:35;;;;;;;11.98;4.07;;;8.70;99.90;;;;;;5016060;28;20057;-64
2024/01/28 11:53:01;;;;;;;10.65;3.67;;;8.80;99.90;;;;;;5015404;28;20026;-64
2024/01/28 11:55:26;;;;;;;9.07;3.83;;;8.90;99.90;;;;;;5015271;28;20022;-64
2024/01/28 11:57:52;;;;;;;14.98;3.95;;;9.00;99.90;;;;;;5015710;28;20118;-64
2024/01/28 12:00:18;;;;;;;12.88;4.57;;;9.10;99.90;;;;;;5015568;28;20052;-64
2024/01/28 12:02:44;;;;;;;8.35;3.60;;;9.00;99.90;;;;;;5015476;28;20049;-64
2024/01/28 12:05:10;;;;;;;10.52;4.32;;;9.10;99.90;;;;;;5016091;28;20023;-64
2024/01/28 12:07:37;;;;;;;8.98;3.97;;;9.30;99.90;;;;;;5015381;28;20031;-64
2024/01/28 12:10:07;;;;;;;8.43;3.67;;;9.40;99.90;;;;;;5015344;28;20019;-64
2024/01/28 12:12:34;;;;;;;9.48;3.38;;;9.50;99.90;;;;;;5015198;28;20092;-64
2024/01/28 12:15:04;;;;;;;15.35;3.70;;;9.70;99.90;;;;;;5015797;28;20037;-64
2024/01/28 12:17:42;;;;;;;10.43;3.58;;;9.60;99.90;;;;;;5014937;28;20034;-64
2024/01/28 12:20:19;;;;;;;5.28;3.15;;;9.70;99.90;;;;;;4998908;28;20022;-64
2024/01/28 12:22:45;;;;;;;10.35;4.70;;;9.60;99.90;;;;;;5015651;28;20026;-64
2024/01/28 12:25:12;;;;;;;12.68;4.28;;;9.90;99.90;;;;;;5015328;28;20022;-64
2024/01/28 12:27:39;;;;;;;8.40;3.90;;;9.70;99.90;;;;;;5014931;28;20076;-64
2024/01/28 12:30:09;;;;;;;12.25;4.07;;;9.50;99.90;;;;;;5014941;28;20018;-64
2024/01/28 12:32:37;;;;;;;9.50;3.60;;;9.80;99.90;;;;;;5014749;28;20027;-64
2024/01/28 12:35:06;;;;;;;7.57;3.28;;;10.00;99.90;;;;;;5014576;28;20022;-64
2024/01/28 12:37:32;;;;;;;10.68;3.22;;;10.00;99.90;;;;;;5014545;28;20019;-64
2024/01/28 12:39:59;;;;;;;6.47;2.80;;;10.20;99.90;;;;;;5014713;28;20110;-63
2024/01/28 12:42:24;;;;;;;7.55;2.72;;;10.50;99.90;;;;;;5014689;28;20026;-62